sensor_id;sensor_type;location;lat;lon;timestamp;pressure;altitude;pressure_sealevel;temperature;humidity
62800;BME280;48842;51.046;13.796;2023-02-02T00:01:17;100065.84;;;6.45;62.39
62800;BME280;48842;51.046;13.796;2023-02-02T00:03:43;100063.31;;;6.50;62.32
62800;BME280;48842;51.046;13.796;2023-02-02T00:06:09;100063.41;;;6.54;62.28
62800;BME280;48842;51.046;13.796;2023-02-02T00:08:34;100063.41;;;6.53;61.62
62800;BME280;48842;51.046;13.796;2023-02-02T00:11:00;100049.44;;;6.49;61.68
62800;BME280;48842;51.046;13.796;2023-02-02T00:13:26;100058.84;;;6.41;61.44
62800;BME280;48842;51.046;13.796;2023-02-02T00:15:52;100059.56;;;6.32;61.61
62800;BME280;48842;51.046;13.796;2023-02-02T00:18:17;100053.53;;;6.33;61.64
62800;BME280;48842;51.046;13.796;2023-02-02T00:20:42;100057.88;;;6.34;61.72
62800;BME280;48842;51.046;13.796;2023-02-02T00:23:08;100052.50;;;6.25;61.40
62800;BME280;48842;51.046;13.796;2023-02-02T00:25:34;100049.88;;;6.23;61.12
62800;BME280;48842;51.046;13.796;2023-02-02T00:27:59;100049.91;;;6.25;61.36
62800;BME280;48842;51.046;13.796;2023-02-02T00:30:24;100050.84;;;6.27;61.16
62800;BME280;48842;51.046;13.796;2023-02-02T00:32:49;100045.41;;;6.15;60.34
62800;BME280;48842;51.046;13.796;2023-02-02T00:35:17;100044.44;;;6.08;60.55
62800;BME280;48842;51.046;13.796;2023-02-02T00:37:43;100042.78;;;6.13;60.80
62800;BME280;48842;51.046;13.796;2023-02-02T00:40:08;100049.81;;;6.19;60.76
62800;BME280;48842;51.046;13.796;2023-02-02T00:42:34;100044.63;;;6.19;60.77
62800;BME280;48842;51.046;13.796;2023-02-02T00:44:59;100042.88;;;6.18;60.49
62800;BME280;48842;51.046;13.796;2023-02-02T00:47:40;100047.25;;;6.22;60.28
62800;BME280;48842;51.046;13.796;2023-02-02T00:50:05;100031.56;;;6.16;60.27
62800;BME280;48842;51.046;13.796;2023-02-02T00:52:31;100043.78;;;6.20;60.28
62800;BME280;48842;51.046;13.796;2023-02-02T00:54:56;100037.78;;;6.24;60.20
62800;BME280;48842;51.046;13.796;2023-02-02T00:57:22;100045.63;;;6.27;60.28
62800;BME280;48842;51.046;13.796;2023-02-02T00:59:47;100038.56;;;6.18;59.91
62800;BME280;48842;51.046;13.796;2023-02-02T01:02:12;100046.34;;;6.18;59.85
62800;BME280;48842;51.046;13.796;2023-02-02T01:04:38;100044.69;;;6.23;60.18
62800;BME280;48842;51.046;13.796;2023-02-02T01:07:03;100041.28;;;6.27;60.17
62800;BME280;48842;51.046;13.796;2023-02-02T01:09:29;100036.97;;;6.28;59.92
62800;BME280;48842;51.046;13.796;2023-02-02T01:11:54;100040.50;;;6.32;60.19
62800;BME280;48842;51.046;13.796;2023-02-02T01:14:19;100040.44;;;6.27;59.67
62800;BME280;48842;51.046;13.796;2023-02-02T01:16:44;100047.22;;;6.19;59.60
62800;BME280;48842;51.046;13.796;2023-02-02T01:19:14;100050.59;;;6.15;59.66
62800;BME280;48842;51.046;13.796;2023-02-02T01:21:39;100045.53;;;6.21;59.93
62800;BME280;48842;51.046;13.796;2023-02-02T01:24:05;100050.78;;;6.24;59.86
62800;BME280;48842;51.046;13.796;2023-02-02T01:26:30;100047.25;;;6.22;59.46
62800;BME280;48842;51.046;13.796;2023-02-02T01:28:56;100047.16;;;6.16;59.44
62800;BME280;48842;51.046;13.796;2023-02-02T01:31:21;100055.88;;;6.18;59.38
62800;BME280;48842;51.046;13.796;2023-02-02T01:33:47;100041.19;;;6.21;59.22
62800;BME280;48842;51.046;13.796;2023-02-02T01:36:16;100045.53;;;6.21;59.14
62800;BME280;48842;51.046;13.796;2023-02-02T01:38:41;100045.50;;;6.18;58.96
62800;BME280;48842;51.046;13.796;2023-02-02T01:41:07;100040.44;;;6.27;59.17
62800;BME280;48842;51.046;13.796;2023-02-02T01:46:11;100036.09;;;6.27;58.88
62800;BME280;48842;51.046;13.796;2023-02-02T01:48:37;100035.28;;;6.30;58.93
62800;BME280;48842;51.046;13.796;2023-02-02T01:51:08;100031.88;;;6.34;58.81
62800;BME280;48842;51.046;13.796;2023-02-02T01:53:34;100034.38;;;6.28;58.87
62800;BME280;48842;51.046;13.796;2023-02-02T01:56:00;100033.47;;;6.26;58.82
62800;BME280;48842;51.046;13.796;2023-02-02T01:58:29;100034.44;;;6.31;58.99
62800;BME280;48842;51.046;13.796;2023-02-02T02:00:55;100024.78;;;6.24;58.92
62800;BME280;48842;51.046;13.796;2023-02-02T02:03:28;100022.84;;;6.10;59.37
62800;BME280;48842;51.046;13.796;2023-02-02T02:06:02;100017.69;;;6.14;59.30
62800;BME280;48842;51.046;13.796;2023-02-02T02:08:34;100016.69;;;6.07;59.64
62800;BME280;48842;51.046;13.796;2023-02-02T02:11:00;100027.09;;;6.08;59.53
62800;BME280;48842;51.046;13.796;2023-02-02T02:13:27;100033.22;;;6.10;59.34
62800;BME280;48842;51.046;13.796;2023-02-02T02:22:04;100032.53;;;6.21;58.91
62800;BME280;48842;51.046;13.796;2023-02-02T02:25:10;100022.94;;;6.18;58.81
62800;BME280;48842;51.046;13.796;2023-02-02T02:31:27;100024.72;;;6.19;58.60
62800;BME280;48842;51.046;13.796;2023-02-02T02:36:47;100030.69;;;6.14;58.59
62800;BME280;48842;51.046;13.796;2023-02-02T02:41:49;100019.41;;;6.15;58.24
62800;BME280;48842;51.046;13.796;2023-02-02T02:44:18;100040.09;;;6.08;58.16
62800;BME280;48842;51.046;13.796;2023-02-02T02:46:44;100024.59;;;6.15;58.31
62800;BME280;48842;51.046;13.796;2023-02-02T02:49:11;100024.69;;;6.18;58.04
62800;BME280;48842;51.046;13.796;2023-02-02T02:51:44;100020.47;;;6.26;57.85
62800;BME280;48842;51.046;13.796;2023-02-02T02:54:12;100029.78;;;6.13;57.47
62800;BME280;48842;51.046;13.796;2023-02-02T02:57:24;100028.97;;;6.16;57.63
62800;BME280;48842;51.046;13.796;2023-02-02T03:03:07;100028.31;;;6.29;57.25
62800;BME280;48842;51.046;13.796;2023-02-02T03:08:09;100035.19;;;6.24;57.08
62800;BME280;48842;51.046;13.796;2023-02-02T03:10:38;100038.66;;;6.26;57.33
62800;BME280;48842;51.046;13.796;2023-02-02T03:13:08;100024.06;;;6.34;57.24
62800;BME280;48842;51.046;13.796;2023-02-02T03:15:35;100041.31;;;6.29;57.15
62800;BME280;48842;51.046;13.796;2023-02-02T03:18:00;100035.41;;;6.39;57.01
62800;BME280;48842;51.046;13.796;2023-02-02T03:20:25;100036.41;;;6.46;57.09
62800;BME280;48842;51.046;13.796;2023-02-02T03:22:50;100028.63;;;6.47;56.90
62800;BME280;48842;51.046;13.796;2023-02-02T03:25:16;100029.50;;;6.50;56.69
62800;BME280;48842;51.046;13.796;2023-02-02T03:27:41;100031.28;;;6.52;56.72
62800;BME280;48842;51.046;13.796;2023-02-02T03:30:11;100046.81;;;6.46;56.65
62800;BME280;48842;51.046;13.796;2023-02-02T03:32:37;100039.81;;;6.43;56.20
62800;BME280;48842;51.046;13.796;2023-02-02T03:35:03;100038.22;;;6.52;56.55
62800;BME280;48842;51.046;13.796;2023-02-02T03:37:29;100045.09;;;6.48;56.12
62800;BME280;48842;51.046;13.796;2023-02-02T03:39:54;100044.94;;;6.37;56.10
62800;BME280;48842;51.046;13.796;2023-02-02T03:42:19;100068.19;;;6.28;56.37
62800;BME280;48842;51.046;13.796;2023-02-02T03:44:45;100043.13;;;6.33;56.44
62800;BME280;48842;51.046;13.796;2023-02-02T03:47:10;100039.59;;;6.28;56.23
62800;BME280;48842;51.046;13.796;2023-02-02T03:49:35;100058.75;;;6.35;56.17
62800;BME280;48842;51.046;13.796;2023-02-02T03:52:00;100049.41;;;6.46;56.07
62800;BME280;48842;51.046;13.796;2023-02-02T03:54:28;100062.44;;;6.47;55.75
62800;BME280;48842;51.046;13.796;2023-02-02T03:56:53;100046.84;;;6.49;55.90
62800;BME280;48842;51.046;13.796;2023-02-02T03:59:18;100041.47;;;6.37;56.08
62800;BME280;48842;51.046;13.796;2023-02-02T04:01:43;100049.25;;;6.35;56.11
62800;BME280;48842;51.046;13.796;2023-02-02T04:04:09;100046.81;;;6.46;56.16
62800;BME280;48842;51.046;13.796;2023-02-02T04:06:34;100064.72;;;6.29;56.12
62800;BME280;48842;51.046;13.796;2023-02-02T04:08:59;100051.66;;;6.26;55.91
62800;BME280;48842;51.046;13.796;2023-02-02T04:11:24;100048.31;;;6.32;56.01
62800;BME280;48842;51.046;13.796;2023-02-02T04:13:50;100062.19;;;6.34;55.86
62800;BME280;48842;51.046;13.796;2023-02-02T04:16:15;100049.41;;;6.46;55.65
62800;BME280;48842;51.046;13.796;2023-02-02T04:18:40;100067.69;;;6.51;55.78
62800;BME280;48842;51.046;13.796;2023-02-02T04:21:06;100072.81;;;6.46;55.35
62800;BME280;48842;51.046;13.796;2023-02-02T04:23:32;100073.72;;;6.50;55.40
62800;BME280;48842;51.046;13.796;2023-02-02T04:25:58;100082.22;;;6.39;55.55
62800;BME280;48842;51.046;13.796;2023-02-02T04:28:24;100106.69;;;6.49;55.58
62800;BME280;48842;51.046;13.796;2023-02-02T04:30:50;100071.94;;;6.44;55.50
62800;BME280;48842;51.046;13.796;2023-02-02T04:33:16;100081.41;;;6.40;55.27
62800;BME280;48842;51.046;13.796;2023-02-02T04:35:42;100087.59;;;6.49;55.58
62800;BME280;48842;51.046;13.796;2023-02-02T04:38:07;100089.47;;;6.57;55.53
62800;BME280;48842;51.046;13.796;2023-02-02T04:40:32;100098.97;;;6.55;55.32
62800;BME280;48842;51.046;13.796;2023-02-02T04:42:58;100097.78;;;6.36;55.21
62800;BME280;48842;51.046;13.796;2023-02-02T04:45:23;100105.78;;;6.45;55.35
62800;BME280;48842;51.046;13.796;2023-02-02T04:47:49;100097.13;;;6.48;55.41
62800;BME280;48842;51.046;13.796;2023-02-02T04:50:14;100099.03;;;6.58;55.64
62800;BME280;48842;51.046;13.796;2023-02-02T04:52:40;100097.28;;;6.56;55.55
62800;BME280;48842;51.046;13.796;2023-02-02T04:55:05;100098.94;;;6.52;55.19
62800;BME280;48842;51.046;13.796;2023-02-02T04:57:31;100098.09;;;6.55;55.53
62800;BME280;48842;51.046;13.796;2023-02-02T04:59:56;100094.75;;;6.62;55.50
62800;BME280;48842;51.046;13.796;2023-02-02T05:02:21;100119.06;;;6.64;55.15
62800;BME280;48842;51.046;13.796;2023-02-02T05:04:46;100123.28;;;6.56;55.26
62800;BME280;48842;51.046;13.796;2023-02-02T05:07:12;100108.38;;;6.45;55.34
62800;BME280;48842;51.046;13.796;2023-02-02T05:09:37;100117.84;;;6.42;55.03
62800;BME280;48842;51.046;13.796;2023-02-02T05:12:02;100108.50;;;6.55;55.26
62800;BME280;48842;51.046;13.796;2023-02-02T05:14:28;100116.41;;;6.61;55.21
62800;BME280;48842;51.046;13.796;2023-02-02T05:16:53;100131.03;;;6.53;55.12
62800;BME280;48842;51.046;13.796;2023-02-02T05:19:18;100118.06;;;6.54;55.10
62800;BME280;48842;51.046;13.796;2023-02-02T05:21:44;100112.78;;;6.51;55.27
62800;BME280;48842;51.046;13.796;2023-02-02T05:24:10;100139.78;;;6.58;55.26
62800;BME280;48842;51.046;13.796;2023-02-02T05:26:36;100129.44;;;6.61;55.39
62800;BME280;48842;51.046;13.796;2023-02-02T05:29:01;100143.34;;;6.61;55.38
62800;BME280;48842;51.046;13.796;2023-02-02T05:31:27;100148.47;;;6.60;55.60
62800;BME280;48842;51.046;13.796;2023-02-02T05:33:52;100152.81;;;6.59;55.44
62800;BME280;48842;51.046;13.796;2023-02-02T05:36:17;100168.31;;;6.52;56.44
62800;BME280;48842;51.046;13.796;2023-02-02T05:38:43;100159.06;;;6.69;55.95
62800;BME280;48842;51.046;13.796;2023-02-02T05:41:08;100158.34;;;6.78;55.66
62800;BME280;48842;51.046;13.796;2023-02-02T05:43:33;100157.47;;;6.79;55.55
62800;BME280;48842;51.046;13.796;2023-02-02T05:45:59;100157.44;;;6.77;55.15
62800;BME280;48842;51.046;13.796;2023-02-02T05:48:25;100163.59;;;6.81;55.11
62800;BME280;48842;51.046;13.796;2023-02-02T05:51:00;100169.72;;;6.85;55.25
62800;BME280;48842;51.046;13.796;2023-02-02T05:53:28;100167.13;;;6.85;55.11
62800;BME280;48842;51.046;13.796;2023-02-02T05:55:54;100177.53;;;6.86;55.11
62800;BME280;48842;51.046;13.796;2023-02-02T05:58:19;100181.94;;;6.89;55.22
62800;BME280;48842;51.046;13.796;2023-02-02T06:00:44;100198.31;;;6.81;54.98
62800;BME280;48842;51.046;13.796;2023-02-02T06:03:09;100189.69;;;6.84;54.97
62800;BME280;48842;51.046;13.796;2023-02-02T06:05:36;100182.84;;;6.89;55.09
62800;BME280;48842;51.046;13.796;2023-02-02T06:08:02;100187.19;;;6.92;54.96
62800;BME280;48842;51.046;13.796;2023-02-02T06:10:27;100188.84;;;6.87;54.73
62800;BME280;48842;51.046;13.796;2023-02-02T06:12:52;100188.84;;;6.85;54.97
62800;BME280;48842;51.046;13.796;2023-02-02T06:15:17;100206.03;;;6.77;55.38
62800;BME280;48842;51.046;13.796;2023-02-02T06:17:43;100211.94;;;6.67;55.73
62800;BME280;48842;51.046;13.796;2023-02-02T06:20:09;100214.56;;;6.68;55.98
62800;BME280;48842;51.046;13.796;2023-02-02T06:22:34;100211.03;;;6.63;56.95
62800;BME280;48842;51.046;13.796;2023-02-02T06:24:59;100260.38;;;6.60;57.23
62800;BME280;48842;51.046;13.796;2023-02-02T06:27:25;100231.72;;;6.57;57.42
62800;BME280;48842;51.046;13.796;2023-02-02T06:29:50;100222.34;;;6.67;57.17
62800;BME280;48842;51.046;13.796;2023-02-02T06:32:15;100214.56;;;6.68;57.24
62800;BME280;48842;51.046;13.796;2023-02-02T06:34:40;100224.22;;;6.74;56.99
62800;BME280;48842;51.046;13.796;2023-02-02T06:37:05;100221.69;;;6.78;57.12
62800;BME280;48842;51.046;13.796;2023-02-02T06:39:31;100232.19;;;6.85;56.89
62800;BME280;48842;51.046;13.796;2023-02-02T06:41:56;100233.88;;;6.81;56.43
62800;BME280;48842;51.046;13.796;2023-02-02T06:44:21;100231.25;;;6.79;56.39
62800;BME280;48842;51.046;13.796;2023-02-02T06:46:46;100240.53;;;6.65;56.50
62800;BME280;48842;51.046;13.796;2023-02-02T06:49:12;100244.25;;;6.78;56.70
62800;BME280;48842;51.046;13.796;2023-02-02T06:51:37;100237.25;;;6.75;56.88
62800;BME280;48842;51.046;13.796;2023-02-02T06:54:03;100242.47;;;6.75;56.79
62800;BME280;48842;51.046;13.796;2023-02-02T06:56:28;100251.09;;;6.74;56.72
62800;BME280;48842;51.046;13.796;2023-02-02T06:58:54;100240.75;;;6.77;56.55
62800;BME280;48842;51.046;13.796;2023-02-02T07:01:19;100247.75;;;6.81;56.63
62800;BME280;48842;51.046;13.796;2023-02-02T07:03:47;100249.47;;;6.79;56.40
62800;BME280;48842;51.046;13.796;2023-02-02T07:06:17;100246.94;;;6.84;56.38
62800;BME280;48842;51.046;13.796;2023-02-02T07:08:43;100258.09;;;6.77;56.46
62800;BME280;48842;51.046;13.796;2023-02-02T07:11:08;100252.09;;;6.81;56.79
62800;BME280;48842;51.046;13.796;2023-02-02T07:13:34;100269.50;;;6.82;56.86
62800;BME280;48842;51.046;13.796;2023-02-02T07:15:59;100266.84;;;6.80;56.96
62800;BME280;48842;51.046;13.796;2023-02-02T07:18:24;100274.53;;;6.74;57.27
62800;BME280;48842;51.046;13.796;2023-02-02T07:20:50;100265.03;;;6.76;57.44
62800;BME280;48842;51.046;13.796;2023-02-02T07:23:15;100281.50;;;6.75;57.66
62800;BME280;48842;51.046;13.796;2023-02-02T07:25:40;100273.72;;;6.77;57.62
62800;BME280;48842;51.046;13.796;2023-02-02T07:28:05;100277.94;;;6.70;57.90
62800;BME280;48842;51.046;13.796;2023-02-02T07:30:31;100277.88;;;6.67;57.56
62800;BME280;48842;51.046;13.796;2023-02-02T07:32:56;100289.78;;;6.54;58.23
62800;BME280;48842;51.046;13.796;2023-02-02T07:35:22;100281.31;;;6.64;58.23
62800;BME280;48842;51.046;13.796;2023-02-02T07:37:54;100290.97;;;6.70;58.11
62800;BME280;48842;51.046;13.796;2023-02-02T07:40:20;100288.28;;;6.67;58.59
62800;BME280;48842;51.046;13.796;2023-02-02T07:42:46;100296.28;;;6.76;58.60
62800;BME280;48842;51.046;13.796;2023-02-02T07:45:12;100297.13;;;6.75;58.61
62800;BME280;48842;51.046;13.796;2023-02-02T07:47:37;100304.94;;;6.75;59.01
62800;BME280;48842;51.046;13.796;2023-02-02T07:50:02;100310.13;;;6.75;59.08
62800;BME280;48842;51.046;13.796;2023-02-02T07:52:28;100307.56;;;6.77;58.51
62800;BME280;48842;51.046;13.796;2023-02-02T07:54:53;100313.72;;;6.80;58.80
62800;BME280;48842;51.046;13.796;2023-02-02T07:57:19;100318.88;;;6.79;58.72
62800;BME280;48842;51.046;13.796;2023-02-02T07:59:44;100317.03;;;6.72;58.74
62800;BME280;48842;51.046;13.796;2023-02-02T08:02:09;100310.03;;;6.69;58.52
62800;BME280;48842;51.046;13.796;2023-02-02T08:04:34;100309.41;;;6.82;58.44
62800;BME280;48842;51.046;13.796;2023-02-02T08:06:59;100317.28;;;6.87;58.28
62800;BME280;48842;51.046;13.796;2023-02-02T08:09:25;100312.16;;;6.92;58.08
62800;BME280;48842;51.046;13.796;2023-02-02T08:11:50;100314.63;;;6.82;57.62
62800;BME280;48842;51.046;13.796;2023-02-02T08:14:16;100324.34;;;6.93;57.77
62800;BME280;48842;51.046;13.796;2023-02-02T08:16:42;100340.75;;;6.89;57.43
62800;BME280;48842;51.046;13.796;2023-02-02T08:19:09;100341.00;;;7.01;57.87
62800;BME280;48842;51.046;13.796;2023-02-02T08:21:34;100336.63;;;7.00;57.43
62800;BME280;48842;51.046;13.796;2023-02-02T08:24:00;100353.81;;;6.92;57.55
62800;BME280;48842;51.046;13.796;2023-02-02T08:26:28;100338.97;;;6.88;57.84
62800;BME280;48842;51.046;13.796;2023-02-02T08:28:56;100352.69;;;6.77;58.08
62800;BME280;48842;51.046;13.796;2023-02-02T08:31:24;100359.44;;;6.68;58.24
62800;BME280;48842;51.046;13.796;2023-02-02T08:33:51;100352.69;;;6.79;57.94
62800;BME280;48842;51.046;13.796;2023-02-02T08:36:21;100351.09;;;6.84;58.05
62800;BME280;48842;51.046;13.796;2023-02-02T08:38:47;100357.97;;;6.80;58.20
62800;BME280;48842;51.046;13.796;2023-02-02T08:41:15;100368.31;;;6.79;58.06
62800;BME280;48842;51.046;13.796;2023-02-02T08:43:40;100353.53;;;6.75;58.33
62800;BME280;48842;51.046;13.796;2023-02-02T08:46:07;100358.88;;;6.82;58.04
62800;BME280;48842;51.046;13.796;2023-02-02T08:48:34;100364.06;;;6.82;58.00
62800;BME280;48842;51.046;13.796;2023-02-02T08:50:59;100360.63;;;6.84;58.13
62800;BME280;48842;51.046;13.796;2023-02-02T08:53:25;100365.91;;;6.88;58.08
62800;BME280;48842;51.046;13.796;2023-02-02T08:56:02;100364.19;;;6.89;57.98
62800;BME280;48842;51.046;13.796;2023-02-02T08:58:29;100383.19;;;6.85;58.21
62800;BME280;48842;51.046;13.796;2023-02-02T09:01:03;100385.63;;;6.75;59.64
62800;BME280;48842;51.046;13.796;2023-02-02T09:03:28;100385.72;;;6.80;59.51
62800;BME280;48842;51.046;13.796;2023-02-02T09:05:53;100377.97;;;6.83;59.57
62800;BME280;48842;51.046;13.796;2023-02-02T09:08:19;100381.47;;;6.84;59.54
62800;BME280;48842;51.046;13.796;2023-02-02T09:10:44;100392.63;;;6.78;59.96
62800;BME280;48842;51.046;13.796;2023-02-02T09:13:09;100392.75;;;6.86;59.47
62800;BME280;48842;51.046;13.796;2023-02-02T09:15:34;100393.53;;;6.81;59.70
62800;BME280;48842;51.046;13.796;2023-02-02T09:18:00;100403.25;;;6.90;59.53
62800;BME280;48842;51.046;13.796;2023-02-02T09:20:25;100397.94;;;6.84;59.86
62800;BME280;48842;51.046;13.796;2023-02-02T09:22:50;100394.56;;;6.88;59.77
62800;BME280;48842;51.046;13.796;2023-02-02T09:25:15;100401.69;;;6.98;59.67
62800;BME280;48842;51.046;13.796;2023-02-02T09:27:41;100397.38;;;7.01;59.80
62800;BME280;48842;51.046;13.796;2023-02-02T09:30:07;100408.72;;;7.01;59.63
62800;BME280;48842;51.046;13.796;2023-02-02T09:32:33;100406.16;;;7.04;59.35
62800;BME280;48842;51.046;13.796;2023-02-02T09:34:58;100415.69;;;7.05;59.71
62800;BME280;48842;51.046;13.796;2023-02-02T09:37:24;100416.53;;;7.01;60.24
62800;BME280;48842;51.046;13.796;2023-02-02T09:39:50;100423.22;;;6.90;60.59
62800;BME280;48842;51.046;13.796;2023-02-02T09:45:15;100423.28;;;6.93;61.20
62800;BME280;48842;51.046;13.796;2023-02-02T09:47:59;100424.16;;;6.93;61.33
62800;BME280;48842;51.046;13.796;2023-02-02T09:50:40;100429.38;;;6.95;61.28
62800;BME280;48842;51.046;13.796;2023-02-02T09:53:21;100440.69;;;6.94;61.30
62800;BME280;48842;51.046;13.796;2023-02-02T09:55:49;100441.63;;;6.99;61.09
62800;BME280;48842;51.046;13.796;2023-02-02T09:58:35;100451.28;;;7.05;61.40
62800;BME280;48842;51.046;13.796;2023-02-02T10:01:08;100459.84;;;6.99;61.74
62800;BME280;48842;51.046;13.796;2023-02-02T10:03:39;100450.31;;;6.98;61.91
62800;BME280;48842;51.046;13.796;2023-02-02T10:06:38;100451.28;;;7.03;61.92
62800;BME280;48842;51.046;13.796;2023-02-02T10:09:19;100459.94;;;7.04;61.54
62800;BME280;48842;51.046;13.796;2023-02-02T10:11:57;100460.06;;;7.08;61.44
62800;BME280;48842;51.046;13.796;2023-02-02T10:14:31;100448.84;;;7.12;61.50
62800;BME280;48842;51.046;13.796;2023-02-02T10:17:05;100452.44;;;7.19;61.38
62800;BME280;48842;51.046;13.796;2023-02-02T10:19:35;100456.84;;;7.22;61.45
62800;BME280;48842;51.046;13.796;2023-02-02T10:22:09;100456.94;;;7.26;61.25
62800;BME280;48842;51.046;13.796;2023-02-02T10:24:37;100456.19;;;7.32;60.86
62800;BME280;48842;51.046;13.796;2023-02-02T10:27:04;100451.69;;;7.25;60.70
62800;BME280;48842;51.046;13.796;2023-02-02T10:30:00;100450.75;;;7.21;60.95
62800;BME280;48842;51.046;13.796;2023-02-02T10:32:27;100451.63;;;7.22;61.30
62800;BME280;48842;51.046;13.796;2023-02-02T10:35:05;100455.94;;;7.21;61.80
62800;BME280;48842;51.046;13.796;2023-02-02T10:37:53;100455.94;;;7.21;61.97
62800;BME280;48842;51.046;13.796;2023-02-02T10:40:35;100455.97;;;7.23;62.29
62800;BME280;48842;51.046;13.796;2023-02-02T10:46:14;100467.16;;;7.15;63.23
62800;BME280;48842;51.046;13.796;2023-02-02T10:48:44;100470.50;;;7.10;63.60
62800;BME280;48842;51.046;13.796;2023-02-02T10:51:25;100475.69;;;7.08;63.28
62800;BME280;48842;51.046;13.796;2023-02-02T10:53:53;100466.16;;;7.09;63.63
62800;BME280;48842;51.046;13.796;2023-02-02T10:56:40;100478.34;;;7.11;64.04
62800;BME280;48842;51.046;13.796;2023-02-02T10:59:21;100468.66;;;7.04;64.26
62800;BME280;48842;51.046;13.796;2023-02-02T11:01:48;100471.38;;;7.10;64.13
62800;BME280;48842;51.046;13.796;2023-02-02T11:04:14;100472.44;;;7.19;63.60
62800;BME280;48842;51.046;13.796;2023-02-02T11:06:57;100472.53;;;7.25;64.04
62800;BME280;48842;51.046;13.796;2023-02-02T11:09:26;100476.13;;;7.31;63.63
62800;BME280;48842;51.046;13.796;2023-02-02T11:12:05;100479.66;;;7.33;63.41
62800;BME280;48842;51.046;13.796;2023-02-02T11:14:42;100479.56;;;7.29;63.52
62800;BME280;48842;51.046;13.796;2023-02-02T11:17:20;100475.16;;;7.26;63.68
62800;BME280;48842;51.046;13.796;2023-02-02T11:19:46;100474.16;;;7.20;63.52
62800;BME280;48842;51.046;13.796;2023-02-02T11:22:29;100483.06;;;7.31;63.76
62800;BME280;48842;51.046;13.796;2023-02-02T11:24:56;100476.75;;;7.20;63.04
62800;BME280;48842;51.046;13.796;2023-02-02T11:27:25;100484.84;;;7.32;63.17
62800;BME280;48842;51.046;13.796;2023-02-02T11:29:52;100488.41;;;7.39;62.93
62800;BME280;48842;51.046;13.796;2023-02-02T11:32:26;100488.66;;;7.49;63.06
62800;BME280;48842;51.046;13.796;2023-02-02T11:37:27;100484.25;;;7.47;62.69
62800;BME280;48842;51.046;13.796;2023-02-02T11:39:52;100490.47;;;7.54;62.42
62800;BME280;48842;51.046;13.796;2023-02-02T11:42:20;100501.09;;;7.66;62.77
62800;BME280;48842;51.046;13.796;2023-02-02T11:44:55;100509.56;;;7.53;62.28
62800;BME280;48842;51.046;13.796;2023-02-02T11:47:26;100500.91;;;7.55;62.02
62800;BME280;48842;51.046;13.796;2023-02-02T11:49:53;100503.69;;;7.64;62.46
62800;BME280;48842;51.046;13.796;2023-02-02T11:52:21;100498.69;;;7.77;62.34
62800;BME280;48842;51.046;13.796;2023-02-02T11:54:58;100506.44;;;7.74;62.33
62800;BME280;48842;51.046;13.796;2023-02-02T11:57:26;100507.47;;;7.80;62.12
62800;BME280;48842;51.046;13.796;2023-02-02T12:02:32;100501.41;;;7.81;62.13
62800;BME280;48842;51.046;13.796;2023-02-02T12:07:45;100502.13;;;7.74;62.84
62800;BME280;48842;51.046;13.796;2023-02-02T12:13:01;100504.09;;;7.86;62.82
62800;BME280;48842;51.046;13.796;2023-02-02T12:21:17;100508.09;;;7.67;62.57
62800;BME280;48842;51.046;13.796;2023-02-02T12:24:02;100511.63;;;7.71;62.78
62800;BME280;48842;51.046;13.796;2023-02-02T12:26:35;100512.66;;;7.80;62.50
62800;BME280;48842;51.046;13.796;2023-02-02T12:29:43;100512.75;;;7.85;62.10
62800;BME280;48842;51.046;13.796;2023-02-02T12:32:38;100500.56;;;7.85;61.35
62800;BME280;48842;51.046;13.796;2023-02-02T12:35:24;100511.78;;;7.78;62.00
62800;BME280;48842;51.046;13.796;2023-02-02T12:38:12;100508.38;;;7.84;61.95
62800;BME280;48842;51.046;13.796;2023-02-02T12:41:21;100510.97;;;7.84;62.54
62800;BME280;48842;51.046;13.796;2023-02-02T12:46:52;100520.41;;;7.76;62.55
62800;BME280;48842;51.046;13.796;2023-02-02T12:52:29;100522.53;;;7.98;62.32
62800;BME280;48842;51.046;13.796;2023-02-02T12:55:16;100530.72;;;8.18;61.62
62800;BME280;48842;51.046;13.796;2023-02-02T13:00:50;100533.31;;;8.17;60.95
62800;BME280;48842;51.046;13.796;2023-02-02T13:03:30;100533.31;;;8.17;60.46
62800;BME280;48842;51.046;13.796;2023-02-02T13:06:32;100550.69;;;8.16;60.90
62800;BME280;48842;51.046;13.796;2023-02-02T13:09:18;100539.13;;;8.02;60.20
62800;BME280;48842;51.046;13.796;2023-02-02T13:11:51;100546.22;;;8.09;60.76
62800;BME280;48842;51.046;13.796;2023-02-02T13:14:24;100548.88;;;8.12;60.52
62800;BME280;48842;51.046;13.796;2023-02-02T13:17:14;100542.66;;;8.06;60.15
62800;BME280;48842;51.046;13.796;2023-02-02T13:19:52;100552.09;;;7.97;60.55
62800;BME280;48842;51.046;13.796;2023-02-02T13:22:25;100547.50;;;7.84;60.92
62800;BME280;48842;51.046;13.796;2023-02-02T13:24:54;100549.38;;;7.93;60.94
62800;BME280;48842;51.046;13.796;2023-02-02T13:27:22;100553.75;;;7.92;60.15
62800;BME280;48842;51.046;13.796;2023-02-02T13:30:00;100549.63;;;8.05;60.59
62800;BME280;48842;51.046;13.796;2023-02-02T13:32:31;100553.19;;;8.10;60.20
62800;BME280;48842;51.046;13.796;2023-02-02T13:37:54;100565.44;;;8.16;59.48
62800;BME280;48842;51.046;13.796;2023-02-02T13:40:35;100561.91;;;8.11;59.08
62800;BME280;48842;51.046;13.796;2023-02-02T13:43:32;100570.69;;;8.17;59.11
62800;BME280;48842;51.046;13.796;2023-02-02T13:46:10;100580.34;;;8.21;59.68
62800;BME280;48842;51.046;13.796;2023-02-02T14:02:53;100602.84;;;7.69;58.51
62800;BME280;48842;51.046;13.796;2023-02-02T14:05:26;100605.34;;;7.63;58.72
62800;BME280;48842;51.046;13.796;2023-02-02T14:08:01;100606.25;;;7.66;59.15
62800;BME280;48842;51.046;13.796;2023-02-02T14:10:35;100612.38;;;7.67;59.25
62800;BME280;48842;51.046;13.796;2023-02-02T14:13:15;100631.28;;;7.57;59.99